Station: Corrigin  

  Atmospheric Gas Attenuation - ITU Rec 676-11   ----------------- dB/100km -----------------
Date Time Temp RH % AH g/m3 Dew Point Wind Direction Speed kph Gust kph Barometer mB Rainfall Since 9am 24GHz 47GHz 76GHz 122GHz 134GHz 241GHz
04/09 09:00 13 66 7.49 6.9 15 1016 2 17.3 24.5 35.9 94.0 85.1 291.8
03/09 09:00 13.5 89 10.41 11.7 9 1013.1 0 23.5 29.0 47.5 125.0 123.6 426.5
02/09 09:00 10 4 1022.8 0
01/09 09:00 10.5 9 1013.1 0
31/08 09:00 15.5 94 12.43 14.6 15 998.6 0 27.8 31.3 54.3 143.3 147.5 510.3
28/08 09:00 10 93 8.74 9 9 1029.9 14 20.1 27.9 43.1 113.1 106.8 367.1
27/08 09:00 10.5 87 8.44 8.5 28 1013.1 19 19.4 26.6 40.8 107.1 100.5 345.3
26/08 09:00 11 93 9.31 10 2 1018 0 21.2 28.1 44.5 116.8 112.3 386.8
25/08 09:00 9.5 93 8.47 8.5 19 1013.1 0 19.5 27.0 41.5 108.9 102.2 351.3
24/08 09:00 10 4 1024.8 3
21/08 09:00 9.5 80 7.28 6.3 4 1028.5 0 17.0 25.6 37.2 97.3 87.1 298.2
18/08 09:00 9 93 8.2 8 9 1013.1 1 19.0 26.6 40.6 106.5 99.1 340.3
17/08 09:00 14.5 73 9.08 9.7 6 1013.3 0 20.6 26.5 41.4 108.7 103.9 357.7
14/08 09:00 10 11 1028 0
13/08 09:00 7 93 7.21 5.9 9 1013.1 0 16.9 25.6 37.4 98.0 87.9 300.6
12/08 09:00 7 85 6.59 4.7 2 1030.9 0 15.6 25.2 35.6 93.0 80.7 275.2
11/08 09:00 5 92 6.26 3.8 9 1022.6 5 14.9 24.9 34.8 90.8 77.6 264.4
07/08 09:00 10 93 8.74 9 0 1017.6 2 20.1 27.4 42.6 111.7 105.7 363.5
06/08 09:00 9 93 8.2 8 9 1019.1 0 19.0 26.9 40.9 107.2 99.6 342.0
05/08 09:00 8 2 1023.1 0
04/08 09:00 13 6 1013.1 1
03/08 09:00 8.5 87 7.43 6.4 0 1013.1 0.9 17.3 25.5 37.6 98.6 89.1 305.4
30/07 09:00 5 92 6.26 3.8 2 1025.4 0 14.9 25.0 34.9 91.1 77.8 265.1
28/07 09:00 5.2 99 6.82 5 9 1032.8 0 16.1 26.2 37.5 97.9 85.9 293.3
27/07 09:00 10 6 1027 0.1
24/07 09:00 4.5 93 6.12 3.5 2 1037.8 0.1 14.7 25.4 35.1 91.3 77.2 262.7
23/07 09:00 5.5 84 5.9 3.1 9 1039.5 0 14.2 24.8 33.8 87.9 73.4 249.2
20/07 09:00 5 100 6.8 5 1027.5 0 16.1 26.0 37.3 97.4 85.5 291.8
17/07 09:00 7 1013.1 2
16/07 09:00 15 59 7.57 7 6 1013.1 0 17.3 23.9 35.2 92.2 83.8 287.3
15/07 09:00 9.5 87 7.92 7.4 7 1027.3 0 18.3 26.6 39.8 104.2 95.8 328.5
14/07 09:00 5.1 1030.6 0
13/07 09:00 5.5 0 1028.9 0
10/07 09:00 10 93 8.74 9 2 1021 0 20.1 27.6 42.7 112.1 106.0 364.5
09/07 09:00 6 93 6.75 4.9 2 1013.1 0 16.0 25.1 36.0 94.1 82.6 282.3
08/07 09:00 6.5 93 6.98 5.4 9 1025.6 0 16.4 25.8 37.2 97.4 86.2 294.5
07/07 09:00 7.5 93 7.45 6.5 4 944.7 0 17.4 23.2 35.2 93.0 85.3 292.7
03/07 09:00 9 93 8.2 8 2 1030.9 0.1 18.9 27.3 41.4 108.4 100.6 345.3
02/07 09:00 10 87 8.18 8 19 1022.6 1 18.9 26.7 40.4 105.9 98.3 337.6
01/07 09:00 9 93 8.2 8 19 1014.7 1 19.0 26.7 40.7 106.7 99.2 340.8
30/06 09:00 10 93 8.74 9 1006 0 20.1 27.0 42.0 110.4 104.7 360.1
29/06 09:00 11.5 94 9.71 10.5 19 1014.4 12 22.1 28.5 45.7 120.2 116.9 403.0
26/06 09:00 10 7 1010.8 0
23/06 09:00 9.5 9 1029.5 0.4
22/06 09:00 11.5 94 9.71 10.5 19 1013.1 1 22.1 28.5 45.7 120.1 116.8 402.6
19/06 09:00 9 93 8.2 8 2 1031.2 0 18.9 27.4 41.4 108.5 100.6 345.4
18/06 09:00 8.5 93 7.94 7.4 4 1028.6 0 18.4 27.0 40.5 105.9 97.4 334.1
17/06 09:00 10 93 8.74 9 19 1024.6 0.1 20.1 27.7 42.9 112.5 106.3 365.5
16/06 09:00 7.5 93 7.45 6.4 19 1023.4 9 17.4 26.2 38.6 101.1 91.4 312.9
15/06 09:00 12 76 8.1 8 1013.1 13 18.6 25.6 38.7 101.4 94.0 322.8
11/06 09:00 12.5 1013.6 1
10/06 09:00 9 93 8.2 8 6 1018.9 0 19.0 26.9 40.9 107.1 99.6 342.0
09/06 09:00 9 87 7.67 6.9 6 1010.4 12 17.8 25.7 38.2 100.3 91.6 314.1
08/06 09:00 14 94 11.34 13.1 19 1010.1 0 25.5 30.4 51.1 134.6 135.7 469.0
04/06 09:00 6 85 6.17 3.7 1013.1 0.1 14.7 24.1 33.6 87.8 74.8 254.8
03/06 09:00 9.5 93 8.47 8.5 9 1021.4 0.2 19.5 27.3 41.9 109.8 102.9 353.6
02/06 09:00 11.5 94 9.71 10.5 9 1018 11 22.1 28.7 45.9 120.6 117.3 404.1
29/05 09:00 1013.1
28/05 09:00 13.5 94 11 12.6 9 1013.1 2 24.8 30.0 50.1 131.8 132.0 455.9
26/05 09:00 12 82 8.74 9 19 1025.4 0 20.0 27.1 41.9 109.7 103.7 356.5
25/05 09:00 4 9 1029.2 0
22/05 09:00 10 19 1023.4 0.6
21/05 09:00 13 77 8.73 9.1 9 1017.8 0 19.9 26.5 40.9 107.4 101.5 349.3
20/05 09:00 16 69 9.4 10.4 19 1020.4 0 21.2 26.8 42.2 110.8 106.7 367.7
19/05 09:00 10.5 93 9.02 9.5 15 1013.1 0 20.7 27.6 43.3 113.7 108.5 373.5
18/05 09:00 11.5 82 8.47 8.5 19 1025.5 0.1 19.4 26.8 41.0 107.4 100.6 345.8
15/05 09:00 12.5 94 10.34 11.6 1016.7 0 23.4 29.4 48.0 126.2 124.6 429.8
14/05 09:00 13.5 89 10.41 11.7 9 1016.5 0 23.5 29.1 47.7 125.4 123.9 427.6
13/05 09:00 16.5 84 11.79 13.9 19 1020.6 0 26.2 30.7 51.9 136.7 138.8 479.9
12/05 09:00 15 73 9.36 10.3 1024.8 0 21.1 27.2 42.8 112.3 107.9 371.8
11/05 09:00 14 94 11.34 13.1 19 1026.5 0 25.4 31.0 51.9 136.6 137.5 474.9
07/05 09:00 11.5 94 9.71 10.5 28 1033.9 0 22.1 29.3 46.7 122.5 118.8 409.2
06/05 09:00 10.5 93 9.02 9.5 28 1031.8 0 20.6 28.3 44.2 115.8 110.2 379.1
05/05 09:00 10.5 87 8.44 8.5 19 1028.4 0 19.4 27.2 41.5 108.8 101.8 349.6
01/05 09:00 11 93 9.31 10 19 1021 0.2 21.2 28.2 44.6 117.1 112.6 387.8
30/04 09:00 15.5 98 12.95 15.2 19 1015.5 0 28.8 32.9 57.5 151.7 157.1 543.8
29/04 09:00 15.5 19 1016.1 3
28/04 09:00 15 94 12.05 14.1 9 1018.3 18 26.9 31.6 54.0 142.2 145.1 501.8
24/04 09:00 15 9 1019.1 0
23/04 09:00 17 9 1011.4 0
22/04 09:00 12 88 9.38 10.1 15 1019.9 0 21.3 28.0 44.3 116.3 112.0 385.9
21/04 09:00 12 94 10.02 11.1 15 1018.7 1 22.7 29.1 47.0 123.5 121.0 417.2
20/04 09:00 17 80 11.58 13.5 7 1012.5 0 25.8 29.8 50.3 132.5 134.1 463.6
16/04 09:00 17 95 13.75 16.2 19 1013.1 0.6 30.4 33.7 59.9 158.1 165.6 573.6
15/04 09:00 21.5 78 14.71 17.5 1016.3 11 32.1 33.8 60.9 160.7 170.1 590.0
14/04 09:00 17 9 1022.8 0
13/04 09:00 21 90 16.49 19.4 19 1020.2 0 36.0 37.4 69.7 184.0 198.4 688.5
10/04 09:00 14 89 10.74 12.2 1025.3 0 24.1 29.9 49.2 129.4 128.7 444.2
09/04 09:00 14 19 1019.4 0
08/04 09:00 15 94 12.05 14.1 17 1016.3 0 26.9 31.5 53.9 142.0 144.9 501.0
07/04 09:00 15.5 94 12.43 14.6 19 1016.2 0 27.7 32.0 55.2 145.5 149.5 517.2
02/04 09:00 17 90 13.02 15.3 19 1021.3 0 28.8 32.7 57.1 150.4 155.7 539.1
01/04 09:00 16 90 12.26 14.3 1021.1 0.1 27.3 31.7 54.4 143.2 146.6 507.0
30/03 09:00 20 77 13.31 15.9 6 1013.1 0 29.3 31.8 55.7 146.9 152.9 529.6
27/03 09:00 20 77 13.31 15.8 1018.9 0 29.3 32.0 56.0 147.7 153.5 531.9
26/03 09:00 18.5 95 15.03 17.7 37 1022.3 0 33.0 35.9 65.1 171.9 182.7 633.3
25/03 09:00 17 95 13.75 16.2 22 1018.4 0.3 30.4 33.9 60.2 158.8 166.2 575.8
23/03 09:00 17 95 13.75 16.2 1017.8 0 30.4 33.9 60.2 158.7 166.2 575.6
20/03 09:00 31 54 17.29 20.6 19 1014.2 0 36.8 34.4 64.2 169.6 184.0 639.6
19/03 09:00 27 62 15.96 19.3 19 1015.7 0 34.3 33.8 61.9 163.5 175.3 608.7

Last Refresh: 04-Sep-2026 16:25:25

Bureau of Meteorology